createdAt,value
2018-11-03T00:00:35.088Z,60.80
2018-11-03T00:01:09.313Z,60.80
2018-11-03T00:01:42.858Z,61.00
2018-11-03T00:02:16.368Z,60.80
2018-11-03T00:02:49.816Z,60.70
2018-11-03T00:03:23.353Z,60.80
2018-11-03T00:03:57.819Z,60.70
2018-11-03T00:04:31.507Z,60.90
2018-11-03T00:05:05.786Z,61.00
2018-11-03T00:05:39.290Z,61.00
2018-11-03T00:06:12.829Z,60.70
2018-11-03T00:06:46.319Z,60.30
2018-11-03T00:07:19.804Z,60.20
2018-11-03T00:07:53.275Z,60.20
2018-11-03T00:08:26.791Z,60.20
2018-11-03T00:09:00.331Z,60.20
2018-11-03T00:09:33.821Z,60.40
2018-11-03T00:10:07.750Z,61.30
2018-11-03T00:10:41.220Z,60.60
2018-11-03T00:11:14.767Z,60.50
2018-11-03T00:11:48.212Z,60.60
2018-11-03T00:12:21.761Z,60.70
2018-11-03T00:12:55.266Z,60.80
2018-11-03T00:13:28.834Z,60.70
2018-11-03T00:14:02.489Z,60.60
2018-11-03T00:14:35.994Z,61.00
2018-11-03T00:15:10.055Z,61.20
2018-11-03T00:15:43.532Z,61.40
2018-11-03T00:16:17.004Z,61.30
2018-11-03T00:16:51.138Z,61.40
2018-11-03T00:17:24.672Z,62.10
2018-11-03T00:17:58.177Z,61.40
2018-11-03T00:18:31.676Z,61.40
2018-11-03T00:19:05.489Z,61.40
2018-11-03T00:19:39.716Z,61.40
2018-11-03T00:20:13.228Z,61.40
2018-11-03T00:20:46.728Z,61.60
2018-11-03T00:21:20.218Z,61.60
2018-11-03T00:21:53.747Z,61.60
2018-11-03T00:22:27.266Z,61.70
2018-11-03T00:23:00.740Z,61.50
2018-11-03T00:23:34.266Z,61.50
2018-11-03T00:24:07.766Z,61.60
2018-11-03T00:24:41.239Z,61.60
2018-11-03T00:25:14.707Z,61.60
2018-11-03T00:25:48.202Z,61.80
2018-11-03T00:26:21.665Z,61.80
2018-11-03T00:26:55.223Z,61.80
2018-11-03T00:27:28.998Z,61.70
2018-11-03T00:28:02.498Z,62.40
2018-11-03T00:28:35.979Z,61.80
2018-11-03T00:29:10.234Z,61.70
2018-11-03T00:29:43.691Z,61.60
2018-11-03T00:30:17.235Z,61.40
2018-11-03T00:30:50.701Z,61.40
2018-11-03T00:31:24.174Z,61.40
2018-11-03T00:31:58.172Z,61.40
2018-11-03T00:32:31.740Z,61.40
2018-11-03T00:33:05.589Z,61.40
2018-11-03T00:33:39.046Z,61.40
2018-11-03T00:34:12.775Z,61.40
2018-11-03T00:34:46.317Z,61.50
2018-11-03T00:35:19.778Z,61.20
2018-11-03T00:35:53.249Z,61.00
2018-11-03T00:36:26.716Z,60.70
2018-11-03T00:37:00.260Z,61.00
2018-11-03T00:37:33.913Z,61.00
2018-11-03T00:38:07.417Z,60.80
2018-11-03T00:38:40.907Z,61.00
2018-11-03T00:39:14.737Z,60.90
2018-11-03T00:39:48.202Z,60.90
2018-11-03T00:40:21.720Z,60.70
2018-11-03T00:40:55.260Z,60.70
2018-11-03T00:41:28.769Z,60.80
2018-11-03T00:42:02.321Z,60.90
2018-11-03T00:42:35.836Z,61.00
2018-11-03T00:43:09.295Z,61.10
2018-11-03T00:43:42.804Z,61.20
2018-11-03T00:44:16.325Z,61.30
2018-11-03T00:44:49.884Z,61.30
2018-11-03T00:45:23.383Z,61.30
2018-11-03T00:45:57.336Z,61.30
2018-11-03T00:46:30.807Z,61.40
2018-11-03T00:47:04.292Z,61.30
2018-11-03T00:47:39.828Z,61.30
2018-11-03T00:48:13.365Z,61.40
2018-11-03T00:48:46.853Z,61.10
2018-11-03T00:49:20.307Z,61.50
2018-11-03T00:49:54.028Z,61.50
2018-11-03T00:50:27.579Z,61.50
2018-11-03T00:51:01.048Z,61.60
2018-11-03T00:51:34.688Z,61.80
2018-11-03T00:52:08.254Z,61.90
2018-11-03T00:52:42.066Z,62.00
2018-11-03T00:53:16.547Z,61.90
2018-11-03T00:53:50.052Z,61.90
2018-11-03T00:54:23.598Z,62.00
2018-11-03T00:54:57.159Z,61.90
2018-11-03T00:55:30.702Z,61.80
2018-11-03T00:56:04.223Z,61.80
2018-11-03T00:56:37.745Z,61.80
2018-11-03T00:57:11.221Z,61.80
2018-11-03T00:57:44.691Z,61.80
2018-11-03T00:58:18.226Z,62.00
2018-11-03T00:58:51.798Z,62.00
2018-11-03T00:59:25.301Z,61.90
2018-11-03T00:59:58.843Z,62.00
2018-11-03T01:00:32.377Z,61.90
2018-11-03T01:01:05.951Z,61.80
2018-11-03T01:01:39.507Z,61.80
2018-11-03T01:02:13.052Z,61.90
2018-11-03T01:02:49.723Z,62.00
2018-11-03T01:03:23.296Z,62.00
2018-11-03T01:03:57.624Z,62.60
2018-11-03T01:04:31.106Z,61.80
2018-11-03T01:05:05.499Z,62.00
2018-11-03T01:05:39.015Z,62.20
2018-11-03T01:06:12.580Z,62.10
2018-11-03T01:06:46.068Z,62.10
2018-11-03T01:07:19.778Z,62.20
2018-11-03T01:07:53.953Z,61.40
2018-11-03T01:08:27.455Z,61.20
2018-11-03T01:09:00.994Z,61.20
2018-11-03T01:09:34.656Z,61.20
2018-11-03T01:10:08.278Z,61.20
2018-11-03T01:10:41.784Z,60.90
2018-11-03T01:11:15.290Z,61.80
2018-11-03T01:11:48.791Z,61.10
2018-11-03T01:12:22.284Z,61.20
2018-11-03T01:12:55.761Z,61.20
2018-11-03T01:13:29.307Z,61.20
2018-11-03T01:14:02.816Z,61.10
2018-11-03T01:14:36.387Z,61.10
2018-11-03T01:15:13.775Z,61.20
2018-11-03T01:15:47.321Z,61.30
2018-11-03T01:16:20.987Z,61.30
2018-11-03T01:16:54.627Z,62.20
2018-11-03T01:17:28.215Z,61.30
2018-11-03T01:18:01.688Z,61.30
2018-11-03T01:18:35.203Z,61.30
2018-11-03T01:19:08.739Z,61.30
2018-11-03T01:19:42.178Z,61.30
2018-11-03T01:20:16.988Z,62.20
2018-11-03T01:20:50.463Z,61.80
2018-11-03T01:21:23.919Z,61.70
2018-11-03T01:21:57.406Z,61.70
2018-11-03T01:22:31.059Z,61.70
2018-11-03T01:23:04.546Z,61.50
2018-11-03T01:23:38.119Z,61.50
2018-11-03T01:24:11.781Z,61.60
2018-11-03T01:24:45.245Z,61.60
2018-11-03T01:25:18.721Z,61.30
2018-11-03T01:25:52.210Z,61.30
2018-11-03T01:26:25.952Z,61.40
2018-11-03T01:26:59.431Z,61.50
2018-11-03T01:27:32.884Z,61.30
2018-11-03T01:28:06.650Z,61.50
2018-11-03T01:28:40.109Z,61.40
2018-11-03T01:29:13.875Z,61.50
2018-11-03T01:29:47.320Z,61.50
2018-11-03T01:30:20.749Z,61.60
2018-11-03T01:30:54.196Z,61.70
2018-11-03T01:31:27.650Z,62.00
2018-11-03T01:32:01.131Z,62.20
2018-11-03T01:32:35.334Z,62.60
2018-11-03T01:33:08.810Z,62.20
2018-11-03T01:33:42.338Z,62.20
2018-11-03T01:34:16.156Z,62.20
2018-11-03T01:34:49.679Z,62.30
2018-11-03T01:35:23.226Z,62.20
2018-11-03T01:35:56.792Z,62.20
2018-11-03T01:36:30.302Z,62.10
2018-11-03T01:37:03.768Z,62.00
2018-11-03T01:37:37.648Z,62.00
2018-11-03T01:38:11.112Z,62.10
2018-11-03T01:38:44.607Z,62.10
2018-11-03T01:39:18.155Z,62.30
2018-11-03T01:39:51.682Z,62.30
2018-11-03T01:40:25.158Z,63.00
2018-11-03T01:40:58.707Z,62.30
2018-11-03T01:41:32.215Z,62.20
2018-11-03T01:42:05.930Z,62.20
2018-11-03T01:42:39.761Z,62.10
2018-11-03T01:43:13.282Z,62.00
2018-11-03T01:43:46.775Z,61.90
2018-11-03T01:44:20.285Z,62.00
2018-11-03T01:44:53.796Z,62.10
2018-11-03T01:45:27.265Z,62.20
2018-11-03T01:46:01.416Z,62.20
2018-11-03T01:46:35.171Z,62.30
2018-11-03T01:47:08.695Z,62.30
2018-11-03T01:47:42.238Z,62.40
2018-11-03T01:48:15.754Z,62.50
2018-11-03T01:48:49.361Z,62.50
2018-11-03T01:49:22.819Z,62.70
2018-11-03T01:49:57.223Z,62.70
2018-11-03T01:50:30.798Z,62.90
2018-11-03T01:51:04.342Z,62.70
2018-11-03T01:51:37.856Z,62.60
2018-11-03T01:52:11.323Z,62.60
2018-11-03T01:52:44.783Z,62.70
2018-11-03T01:53:18.323Z,62.60
2018-11-03T01:53:51.799Z,62.70
2018-11-03T01:54:25.703Z,62.80
2018-11-03T01:54:59.198Z,62.90
2018-11-03T01:55:32.718Z,62.90
2018-11-03T01:56:06.379Z,62.80
2018-11-03T01:56:39.874Z,62.80
2018-11-03T01:57:14.081Z,62.70
2018-11-03T01:57:47.643Z,62.70
2018-11-03T01:58:21.242Z,62.70
2018-11-03T01:58:54.783Z,62.60
2018-11-03T01:59:28.249Z,62.60
2018-11-03T02:00:01.836Z,62.70
2018-11-03T02:00:35.337Z,62.70
2018-11-03T02:01:08.817Z,62.80
2018-11-03T02:01:42.275Z,63.00
2018-11-03T02:02:15.742Z,62.80
2018-11-03T02:02:49.213Z,62.90
2018-11-03T02:03:23.292Z,63.00
2018-11-03T02:03:56.820Z,63.20
2018-11-03T02:04:30.416Z,63.10
2018-11-03T02:05:03.959Z,63.20
2018-11-03T02:05:37.468Z,63.20
2018-11-03T02:06:11.673Z,63.10
2018-11-03T02:06:45.225Z,63.00
2018-11-03T02:07:18.765Z,62.90
2018-11-03T02:07:52.746Z,63.10
2018-11-03T02:08:26.230Z,63.30
2018-11-03T02:08:59.728Z,63.30
2018-11-03T02:09:33.231Z,63.40
2018-11-03T02:10:07.871Z,63.30
2018-11-03T02:10:41.293Z,63.30
2018-11-03T02:11:14.871Z,63.30
2018-11-03T02:11:48.366Z,63.20
2018-11-03T02:12:21.798Z,63.20
2018-11-03T02:12:55.267Z,63.50
2018-11-03T02:13:28.737Z,63.20
2018-11-03T02:14:02.236Z,63.30
2018-11-03T02:14:35.737Z,63.20
2018-11-03T02:15:09.790Z,63.10
2018-11-03T02:15:43.280Z,63.30
2018-11-03T02:16:16.967Z,63.30
2018-11-03T02:16:50.465Z,63.40
2018-11-03T02:17:23.927Z,63.40
2018-11-03T02:17:57.693Z,63.40
2018-11-03T02:18:31.215Z,63.60
2018-11-03T02:19:04.930Z,63.60
2018-11-03T02:19:39.712Z,64.20
2018-11-03T02:20:13.940Z,63.40
2018-11-03T02:20:47.426Z,63.20
2018-11-03T02:21:21.013Z,63.30
2018-11-03T02:21:54.649Z,63.50
2018-11-03T02:22:28.144Z,63.60
2018-11-03T02:23:01.664Z,63.40
2018-11-03T02:23:35.173Z,63.50
2018-11-03T02:24:08.641Z,63.50
2018-11-03T02:24:42.174Z,63.60
2018-11-03T02:25:15.653Z,63.70
2018-11-03T02:25:49.113Z,63.70
2018-11-03T02:26:22.532Z,63.70
2018-11-03T02:26:56.515Z,63.70
2018-11-03T02:27:29.963Z,63.60
2018-11-03T02:28:03.464Z,63.80
2018-11-03T02:28:37.227Z,63.80
2018-11-03T02:29:11.016Z,63.70
2018-11-03T02:29:44.548Z,63.80
2018-11-03T02:30:19.039Z,64.00
2018-11-03T02:30:53.186Z,63.90
2018-11-03T02:31:26.646Z,64.00
2018-11-03T02:32:00.162Z,64.10
2018-11-03T02:32:33.654Z,64.10
2018-11-03T02:33:07.155Z,64.30
2018-11-03T02:33:40.649Z,64.20
2018-11-03T02:34:14.800Z,64.10
2018-11-03T02:34:48.249Z,64.10
2018-11-03T02:35:21.786Z,64.30
2018-11-03T02:35:55.519Z,64.30
2018-11-03T02:36:29.077Z,64.40
2018-11-03T02:37:02.629Z,64.30
2018-11-03T02:37:36.859Z,64.20
2018-11-03T02:38:10.354Z,64.30
2018-11-03T02:38:43.845Z,64.30
2018-11-03T02:39:17.340Z,64.40
2018-11-03T02:39:50.824Z,64.40
2018-11-03T02:40:24.377Z,64.40
2018-11-03T02:40:57.923Z,64.50
2018-11-03T02:41:31.452Z,64.50
2018-11-03T02:42:05.489Z,64.60
2018-11-03T02:42:39.255Z,64.60
2018-11-03T02:43:12.859Z,64.60
2018-11-03T02:43:46.336Z,64.70
2018-11-03T02:44:19.840Z,64.80
2018-11-03T02:44:53.287Z,64.70
2018-11-03T02:45:26.761Z,64.80
2018-11-03T02:46:00.220Z,64.90
2018-11-03T02:46:33.768Z,64.80
2018-11-03T02:47:07.471Z,64.90
2018-11-03T02:47:41.445Z,64.90
2018-11-03T02:48:14.970Z,64.90
2018-11-03T02:48:48.497Z,65.00
2018-11-03T02:49:22.053Z,65.00
2018-11-03T02:49:55.589Z,65.00
2018-11-03T02:50:29.118Z,65.00
2018-11-03T02:51:02.648Z,65.10
2018-11-03T02:51:36.250Z,65.00
2018-11-03T02:52:09.854Z,65.10
2018-11-03T02:52:43.494Z,65.20
2018-11-03T02:53:17.011Z,65.10
2018-11-03T02:53:50.514Z,65.20
2018-11-03T02:54:24.039Z,65.10
2018-11-03T02:54:57.524Z,65.30
2018-11-03T02:55:31.088Z,65.30
2018-11-03T02:56:04.572Z,65.30
2018-11-03T02:56:38.695Z,66.10
2018-11-03T02:57:12.725Z,65.50
2018-11-03T02:57:46.206Z,65.60
2018-11-03T02:58:19.665Z,65.50
2018-11-03T02:58:53.326Z,65.60
2018-11-03T02:59:26.863Z,65.60
2018-11-03T03:00:00.352Z,65.50
2018-11-03T03:00:33.837Z,65.30
2018-11-03T03:01:07.446Z,65.30
2018-11-03T03:01:40.969Z,65.30
2018-11-03T03:02:14.519Z,65.40
2018-11-03T03:02:48.006Z,65.30
2018-11-03T03:03:21.433Z,65.30
2018-11-03T03:03:55.877Z,65.40
2018-11-03T03:04:29.415Z,65.30
2018-11-03T03:05:02.957Z,65.40
2018-11-03T03:05:36.547Z,65.10
2018-11-03T03:06:10.094Z,65.20
2018-11-03T03:06:44.684Z,65.10
2018-11-03T03:07:18.339Z,65.10
2018-11-03T03:07:51.894Z,64.90
2018-11-03T03:08:25.356Z,65.20
2018-11-03T03:08:59.011Z,65.20
2018-11-03T03:09:32.461Z,65.30
2018-11-03T03:10:07.754Z,65.30
2018-11-03T03:10:41.138Z,65.50
2018-11-03T03:11:14.891Z,65.50
2018-11-03T03:11:48.913Z,65.50
2018-11-03T03:12:22.779Z,65.30
2018-11-03T03:12:56.319Z,65.30
2018-11-03T03:13:29.783Z,65.30
2018-11-03T03:14:03.351Z,65.30
2018-11-03T03:14:37.831Z,65.20
2018-11-03T03:15:12.497Z,65.10
2018-11-03T03:15:46.047Z,65.10
2018-11-03T03:16:19.737Z,65.20
2018-11-03T03:16:53.233Z,65.50
2018-11-03T03:17:26.665Z,65.50
2018-11-03T03:18:00.206Z,65.60
2018-11-03T03:18:33.738Z,65.70
2018-11-03T03:19:07.267Z,65.80
2018-11-03T03:19:40.699Z,65.90
2018-11-03T03:20:14.181Z,65.80
2018-11-03T03:20:47.653Z,65.70
2018-11-03T03:21:21.199Z,65.70
2018-11-03T03:21:54.670Z,65.70
2018-11-03T03:22:28.153Z,65.60
2018-11-03T03:23:01.669Z,65.40
2018-11-03T03:23:35.506Z,65.40
2018-11-03T03:24:08.960Z,65.20
2018-11-03T03:24:42.436Z,65.20
2018-11-03T03:25:16.041Z,65.80
2018-11-03T03:25:49.485Z,65.20
2018-11-03T03:26:22.964Z,65.00
2018-11-03T03:26:56.446Z,65.00
2018-11-03T03:27:29.969Z,65.00
2018-11-03T03:28:03.467Z,64.90
2018-11-03T03:28:37.264Z,64.80
2018-11-03T03:29:10.785Z,64.90
2018-11-03T03:29:44.362Z,65.10
2018-11-03T03:30:17.779Z,64.90
2018-11-03T03:30:51.272Z,64.90
2018-11-03T03:31:24.736Z,64.90
2018-11-03T03:31:58.309Z,65.00
2018-11-03T03:32:31.752Z,65.10
2018-11-03T03:33:05.548Z,65.00
2018-11-03T03:33:39.079Z,65.00
2018-11-03T03:34:12.612Z,65.20
2018-11-03T03:34:46.125Z,65.10
2018-11-03T03:35:19.653Z,65.10
2018-11-03T03:35:53.128Z,65.30
2018-11-03T03:36:26.633Z,65.30
2018-11-03T03:37:00.156Z,65.50
2018-11-03T03:37:33.666Z,65.50
2018-11-03T03:38:07.126Z,65.60
2018-11-03T03:38:40.615Z,65.60
2018-11-03T03:39:14.101Z,65.70
2018-11-03T03:39:47.680Z,65.80
2018-11-03T03:40:21.203Z,65.80
2018-11-03T03:40:54.772Z,65.60
2018-11-03T03:41:28.373Z,65.70
2018-11-03T03:42:01.837Z,65.70
2018-11-03T03:42:35.322Z,65.70
2018-11-03T03:43:08.791Z,65.80
2018-11-03T03:43:42.264Z,66.00
2018-11-03T03:44:15.772Z,65.90
2018-11-03T03:44:49.253Z,65.90
2018-11-03T03:45:22.808Z,66.00
2018-11-03T03:45:56.296Z,65.90
2018-11-03T03:46:29.788Z,65.80
2018-11-03T03:47:03.285Z,65.80
2018-11-03T03:47:36.751Z,65.90
2018-11-03T03:48:10.266Z,66.00
2018-11-03T03:48:43.778Z,65.90
2018-11-03T03:49:17.290Z,66.10
2018-11-03T03:49:50.797Z,65.80
2018-11-03T03:50:24.268Z,65.60
2018-11-03T03:50:57.804Z,65.50
2018-11-03T03:51:31.292Z,65.50
2018-11-03T03:52:05.220Z,65.40
2018-11-03T03:52:38.965Z,65.50
2018-11-03T03:53:12.507Z,65.60
2018-11-03T03:53:46.010Z,65.50
2018-11-03T03:54:19.550Z,65.60
2018-11-03T03:54:53.035Z,65.70
2018-11-03T03:55:26.564Z,65.80
2018-11-03T03:56:00.024Z,66.00
2018-11-03T03:56:33.502Z,66.00
2018-11-03T03:57:07.029Z,65.90
2018-11-03T03:57:40.529Z,65.80
2018-11-03T03:58:13.982Z,65.60
2018-11-03T03:58:47.663Z,65.50
2018-11-03T03:59:21.102Z,65.70
2018-11-03T03:59:54.913Z,65.70
2018-11-03T04:00:28.446Z,65.80
2018-11-03T04:01:02.139Z,65.80
2018-11-03T04:01:35.639Z,65.80
2018-11-03T04:02:09.193Z,65.70
2018-11-03T04:02:42.674Z,65.40
2018-11-03T04:03:16.268Z,65.50
2018-11-03T04:03:49.743Z,65.60
2018-11-03T04:04:23.281Z,65.50
2018-11-03T04:04:56.760Z,65.40
2018-11-03T04:05:30.305Z,65.30
2018-11-03T04:06:04.038Z,65.40
2018-11-03T04:06:37.577Z,65.20
2018-11-03T04:07:11.083Z,65.30
2018-11-03T04:07:44.578Z,65.20
2018-11-03T04:08:18.043Z,65.10
2018-11-03T04:08:51.569Z,65.20
2018-11-03T04:09:25.253Z,65.30
2018-11-03T04:09:58.742Z,65.40
2018-11-03T04:10:32.906Z,65.30
2018-11-03T04:11:06.399Z,65.00
2018-11-03T04:11:39.832Z,65.00
2018-11-03T04:12:13.511Z,65.00
2018-11-03T04:12:47.653Z,65.30
2018-11-03T04:13:21.180Z,65.50
2018-11-03T04:13:54.828Z,65.60
2018-11-03T04:14:28.417Z,65.40
2018-11-03T04:15:01.951Z,65.40
2018-11-03T04:15:36.071Z,65.30
2018-11-03T04:16:09.587Z,65.30
2018-11-03T04:16:43.151Z,65.30
2018-11-03T04:17:16.664Z,65.40
2018-11-03T04:17:50.130Z,65.50
2018-11-03T04:18:23.583Z,65.60
2018-11-03T04:18:57.102Z,65.60
2018-11-03T04:19:30.620Z,65.70
2018-11-03T04:20:04.491Z,65.70
2018-11-03T04:20:38.004Z,65.70
2018-11-03T04:21:15.671Z,65.80
2018-11-03T04:21:49.200Z,65.80
2018-11-03T04:22:22.844Z,65.90
2018-11-03T04:22:56.290Z,65.90
2018-11-03T04:23:29.754Z,65.90
2018-11-03T04:24:03.208Z,65.80
2018-11-03T04:24:36.706Z,65.80
2018-11-03T04:25:10.216Z,65.90
2018-11-03T04:25:44.310Z,66.10
2018-11-03T04:26:17.763Z,66.00
2018-11-03T04:26:51.292Z,66.00
2018-11-03T04:27:24.805Z,66.00
2018-11-03T04:27:58.352Z,66.10
2018-11-03T04:28:31.793Z,66.10
2018-11-03T04:29:05.480Z,66.10
2018-11-03T04:29:39.096Z,66.30
2018-11-03T04:30:13.833Z,66.10
2018-11-03T04:30:47.279Z,66.20
2018-11-03T04:31:20.852Z,66.10
2018-11-03T04:31:54.586Z,66.10
2018-11-03T04:32:28.284Z,66.10
2018-11-03T04:33:01.795Z,66.00
2018-11-03T04:33:35.319Z,66.00
2018-11-03T04:34:08.795Z,65.90
2018-11-03T04:34:42.225Z,65.90
2018-11-03T04:35:15.691Z,66.00
2018-11-03T04:35:49.219Z,65.90
2018-11-03T04:36:22.878Z,66.00
2018-11-03T04:36:56.477Z,66.20
2018-11-03T04:37:29.982Z,66.20
2018-11-03T04:38:03.544Z,66.20
2018-11-03T04:38:37.304Z,66.20
2018-11-03T04:39:10.839Z,66.50
2018-11-03T04:39:44.331Z,66.40
2018-11-03T04:40:17.789Z,66.20
2018-11-03T04:40:51.257Z,66.20
2018-11-03T04:41:24.824Z,66.30
2018-11-03T04:41:58.307Z,66.30
2018-11-03T04:42:31.800Z,66.20
2018-11-03T04:43:05.342Z,66.10
2018-11-03T04:43:38.839Z,66.10
2018-11-03T04:44:12.360Z,66.90
2018-11-03T04:44:45.877Z,66.20
2018-11-03T04:45:19.377Z,66.20
2018-11-03T04:45:52.921Z,66.40
2018-11-03T04:46:26.921Z,66.20
2018-11-03T04:47:00.396Z,66.20
2018-11-03T04:47:33.904Z,66.20
2018-11-03T04:48:07.385Z,66.20
2018-11-03T04:48:40.915Z,66.10
2018-11-03T04:49:14.474Z,66.10
2018-11-03T04:49:48.028Z,66.00
2018-11-03T04:50:21.531Z,65.90
2018-11-03T04:50:55.060Z,66.10
2018-11-03T04:51:29.035Z,66.10
2018-11-03T04:52:02.485Z,66.10
2018-11-03T04:52:36.297Z,66.20
2018-11-03T04:53:09.829Z,66.10
2018-11-03T04:53:43.314Z,66.10
2018-11-03T04:54:16.879Z,66.20
2018-11-03T04:54:50.554Z,66.30
2018-11-03T04:56:03.809Z,66.30
2018-11-03T04:56:37.360Z,66.20
2018-11-03T04:57:10.910Z,66.30
2018-11-03T04:57:44.483Z,66.30
2018-11-03T04:58:17.956Z,66.30
2018-11-03T04:58:51.947Z,66.20
2018-11-03T04:59:25.508Z,66.20
2018-11-03T04:59:59.086Z,67.00
2018-11-03T05:00:32.568Z,66.30
2018-11-03T05:01:06.076Z,66.30
2018-11-03T05:01:39.727Z,66.30
2018-11-03T05:02:14.171Z,66.50
2018-11-03T05:02:47.658Z,66.40
2018-11-03T05:03:21.124Z,66.30
2018-11-03T05:03:54.860Z,66.20
2018-11-03T05:04:28.371Z,66.30
2018-11-03T05:05:01.924Z,66.40
2018-11-03T05:05:35.511Z,66.60
2018-11-03T05:06:08.997Z,66.60
2018-11-03T05:06:42.579Z,66.50
2018-11-03T05:07:16.218Z,66.40
2018-11-03T05:07:49.831Z,66.30
2018-11-03T05:08:23.275Z,66.40
2018-11-03T05:08:56.792Z,66.40
2018-11-03T05:09:30.287Z,66.50
2018-11-03T05:10:03.929Z,66.50
2018-11-03T05:10:37.515Z,66.60
2018-11-03T05:11:10.968Z,66.50
2018-11-03T05:11:44.415Z,66.60
2018-11-03T05:12:17.931Z,66.60
2018-11-03T05:12:51.439Z,66.50
2018-11-03T05:13:24.906Z,66.60
2018-11-03T05:13:58.431Z,66.70
2018-11-03T05:14:31.974Z,66.40
2018-11-03T05:15:05.729Z,66.50
2018-11-03T05:15:39.255Z,66.60
2018-11-03T05:16:12.786Z,66.60
2018-11-03T05:16:46.284Z,66.40
2018-11-03T05:17:19.798Z,66.40
2018-11-03T05:17:53.902Z,66.30
2018-11-03T05:18:27.544Z,66.50
2018-11-03T05:19:01.070Z,66.50
2018-11-03T05:19:34.544Z,66.20
2018-11-03T05:20:08.077Z,66.20
2018-11-03T05:20:41.763Z,66.20
2018-11-03T05:21:15.315Z,66.20
2018-11-03T05:21:49.537Z,66.20
2018-11-03T05:22:23.515Z,66.40
2018-11-03T05:22:56.987Z,66.70
2018-11-03T05:23:30.444Z,66.50
2018-11-03T05:24:04.000Z,66.60
2018-11-03T05:24:37.733Z,66.70
2018-11-03T05:25:11.284Z,66.90
2018-11-03T05:25:44.764Z,66.70
2018-11-03T05:26:18.296Z,66.80
2018-11-03T05:26:51.784Z,66.70
2018-11-03T05:27:25.349Z,66.70
2018-11-03T05:27:59.302Z,66.90
2018-11-03T05:28:32.735Z,67.00
2018-11-03T05:29:06.271Z,67.10
2018-11-03T05:29:39.799Z,67.20
2018-11-03T05:30:13.301Z,67.00
2018-11-03T05:30:46.902Z,66.90
2018-11-03T05:31:20.506Z,66.80
2018-11-03T05:31:53.951Z,66.70
2018-11-03T05:32:27.439Z,66.60
2018-11-03T05:33:00.981Z,66.80
2018-11-03T05:33:34.445Z,66.90
2018-11-03T05:34:07.929Z,66.90
2018-11-03T05:34:41.456Z,66.90
2018-11-03T05:35:14.998Z,66.80
2018-11-03T05:35:49.171Z,66.70
2018-11-03T05:36:22.700Z,66.60
2018-11-03T05:36:56.204Z,66.60
2018-11-03T05:37:29.656Z,66.60
2018-11-03T05:38:03.094Z,66.60
2018-11-03T05:38:36.576Z,66.70
2018-11-03T05:39:11.444Z,66.90
2018-11-03T05:39:44.922Z,67.00
2018-11-03T05:40:18.375Z,67.20
2018-11-03T05:40:51.824Z,67.10
2018-11-03T05:41:25.396Z,66.90
2018-11-03T05:41:58.916Z,67.00
2018-11-03T05:42:32.347Z,66.90
2018-11-03T05:43:06.157Z,66.90
2018-11-03T05:43:39.643Z,66.70
2018-11-03T05:44:13.639Z,66.30
2018-11-03T05:44:47.105Z,66.40
2018-11-03T05:45:20.696Z,66.40
2018-11-03T05:45:54.145Z,66.50
2018-11-03T05:46:27.705Z,66.70
2018-11-03T05:47:01.880Z,66.60
2018-11-03T05:47:35.560Z,66.60
2018-11-03T05:48:09.139Z,66.60
2018-11-03T05:48:43.006Z,66.40
2018-11-03T05:49:16.497Z,66.60
2018-11-03T05:49:50.339Z,66.60
2018-11-03T05:50:24.247Z,66.60
2018-11-03T05:50:57.767Z,66.40
2018-11-03T05:51:31.258Z,66.30
2018-11-03T05:52:04.767Z,66.30
2018-11-03T05:52:38.301Z,66.40
2018-11-03T05:53:11.790Z,66.40
2018-11-03T05:53:45.323Z,66.30
2018-11-03T05:54:18.820Z,66.20
2018-11-03T05:54:52.294Z,66.00
2018-11-03T05:55:25.777Z,65.90
2018-11-03T05:55:59.255Z,65.90
2018-11-03T05:56:32.788Z,65.80
2018-11-03T05:57:06.880Z,65.60
2018-11-03T05:57:40.376Z,65.60
2018-11-03T05:58:13.956Z,65.60
2018-11-03T05:58:47.498Z,65.60
2018-11-03T05:59:20.988Z,65.60
2018-11-03T05:59:55.058Z,65.60
2018-11-03T06:00:28.599Z,65.60
2018-11-03T06:01:02.163Z,65.80
2018-11-03T06:01:35.624Z,65.90
2018-11-03T06:02:09.181Z,65.90
2018-11-03T06:02:42.667Z,65.90
2018-11-03T06:03:16.217Z,66.00
2018-11-03T06:03:49.773Z,66.10
2018-11-03T06:04:23.305Z,65.90
2018-11-03T06:04:57.073Z,65.80
2018-11-03T06:05:30.593Z,65.80
2018-11-03T06:06:04.094Z,65.70
2018-11-03T06:06:37.605Z,65.80
2018-11-03T06:07:11.074Z,65.40
2018-11-03T06:07:44.542Z,65.30
2018-11-03T06:08:18.019Z,65.00
2018-11-03T06:08:51.681Z,65.10
2018-11-03T06:09:25.055Z,65.20
2018-11-03T06:09:58.548Z,65.30
2018-11-03T06:10:32.071Z,65.40
2018-11-03T06:11:06.014Z,65.20
2018-11-03T06:11:39.579Z,65.40
2018-11-03T06:12:13.077Z,65.50
2018-11-03T06:12:46.556Z,65.70
2018-11-03T06:13:20.034Z,65.50
2018-11-03T06:13:53.508Z,65.60
2018-11-03T06:14:27.089Z,65.70
2018-11-03T06:15:00.556Z,65.50
2018-11-03T06:15:34.210Z,65.60
2018-11-03T06:16:07.638Z,65.60
2018-11-03T06:16:41.169Z,65.50
2018-11-03T06:17:14.676Z,65.50
2018-11-03T06:17:48.179Z,65.40
2018-11-03T06:18:21.650Z,65.50
2018-11-03T06:18:55.113Z,65.60
2018-11-03T06:19:28.565Z,65.80
2018-11-03T06:20:02.084Z,66.00
2018-11-03T06:20:35.595Z,65.70
2018-11-03T06:21:09.211Z,65.60
2018-11-03T06:21:42.679Z,65.50
2018-11-03T06:22:16.212Z,65.50
2018-11-03T06:22:49.741Z,65.60
2018-11-03T06:23:23.243Z,65.70
2018-11-03T06:23:56.722Z,65.90
2018-11-03T06:24:30.244Z,66.00
2018-11-03T06:25:03.788Z,65.90
2018-11-03T06:25:37.272Z,65.90
2018-11-03T06:26:10.718Z,65.90
2018-11-03T06:26:44.225Z,66.00
2018-11-03T06:27:17.708Z,66.10
2018-11-03T06:27:51.238Z,66.10
2018-11-03T06:28:24.800Z,66.10
2018-11-03T06:28:59.062Z,66.00
2018-11-03T06:29:32.498Z,65.90
2018-11-03T06:30:07.898Z,65.90
2018-11-03T06:30:41.369Z,65.90
2018-11-03T06:31:14.850Z,65.80
2018-11-03T06:31:49.240Z,65.90
2018-11-03T06:32:22.737Z,65.70
2018-11-03T06:32:56.258Z,65.70
2018-11-03T06:33:29.760Z,65.70
2018-11-03T06:34:03.521Z,65.80
2018-11-03T06:34:37.244Z,66.00
2018-11-03T06:35:11.958Z,66.20
2018-11-03T06:35:45.369Z,66.30
2018-11-03T06:36:18.852Z,66.00
2018-11-03T06:36:52.360Z,65.90
2018-11-03T06:37:25.814Z,66.00
2018-11-03T06:37:59.353Z,66.00
2018-11-03T06:38:32.850Z,66.00
2018-11-03T06:39:07.623Z,65.90
2018-11-03T06:39:41.077Z,66.00
2018-11-03T06:40:14.593Z,65.80
2018-11-03T06:40:48.037Z,65.70
2018-11-03T06:41:21.537Z,65.50
2018-11-03T06:41:55.034Z,65.40
2018-11-03T06:42:28.827Z,65.40
2018-11-03T06:43:02.328Z,65.50
2018-11-03T06:43:35.799Z,65.50
2018-11-03T06:44:09.327Z,65.40
2018-11-03T06:44:42.781Z,65.40
2018-11-03T06:45:16.366Z,65.40
2018-11-03T06:45:50.017Z,65.40
2018-11-03T06:46:23.594Z,65.50
2018-11-03T06:46:57.085Z,65.50
2018-11-03T06:47:30.666Z,65.40
2018-11-03T06:48:04.879Z,65.50
2018-11-03T06:48:38.363Z,65.60
2018-11-03T06:49:17.244Z,65.80
2018-11-03T06:49:50.782Z,66.00
2018-11-03T06:50:24.271Z,66.00
2018-11-03T06:50:57.728Z,66.00
2018-11-03T06:51:31.407Z,65.90
2018-11-03T06:52:05.194Z,65.70
2018-11-03T06:52:38.692Z,65.70
2018-11-03T06:53:12.186Z,65.80
2018-11-03T06:53:45.642Z,65.90
2018-11-03T06:54:20.179Z,65.90
2018-11-03T06:54:53.723Z,66.00
2018-11-03T06:55:27.203Z,65.90
2018-11-03T06:56:00.693Z,66.20
2018-11-03T06:56:34.765Z,66.30
2018-11-03T06:57:08.239Z,66.40
2018-11-03T06:57:41.724Z,66.60
2018-11-03T06:58:15.223Z,66.60
2018-11-03T06:58:48.778Z,66.80
2018-11-03T06:59:22.268Z,66.90
2018-11-03T06:59:55.856Z,66.80
2018-11-03T07:00:29.555Z,66.60
2018-11-03T07:01:03.007Z,66.80
2018-11-03T07:01:36.443Z,66.70
2018-11-03T07:02:10.018Z,66.60
2018-11-03T07:02:43.505Z,66.60
2018-11-03T07:03:16.972Z,66.60
2018-11-03T07:03:50.523Z,66.50
2018-11-03T07:04:23.990Z,66.50
2018-11-03T07:04:57.504Z,66.60
2018-11-03T07:05:30.957Z,66.80
2018-11-03T07:06:04.491Z,66.90
2018-11-03T07:06:37.941Z,67.00
2018-11-03T07:07:11.464Z,67.20
2018-11-03T07:07:44.975Z,67.20
2018-11-03T07:08:19.759Z,67.10
2018-11-03T07:08:53.274Z,67.20
2018-11-03T07:09:26.757Z,66.90
2018-11-03T07:10:00.357Z,66.60
2018-11-03T07:10:33.916Z,66.50
2018-11-03T07:11:07.402Z,66.70
2018-11-03T07:11:41.125Z,66.60
2018-11-03T07:12:14.653Z,66.80
2018-11-03T07:12:48.332Z,66.60
2018-11-03T07:13:21.854Z,66.70
2018-11-03T07:13:55.369Z,66.70